createdAt,value
2022-07-30T06:07:13.071Z,11.90
2022-07-30T06:09:41.276Z,13.03
2022-07-30T06:12:09.501Z,11.53
2022-07-30T06:14:37.635Z,9.00
2022-07-30T06:17:05.869Z,8.93
2022-07-30T06:19:34.064Z,7.03
2022-07-30T06:22:06.813Z,8.33
2022-07-30T06:24:37.877Z,8.13
2022-07-30T06:27:06.437Z,7.77
2022-07-30T06:29:34.568Z,8.57
2022-07-30T06:32:02.822Z,7.40
2022-07-30T06:34:30.950Z,6.70
2022-07-30T06:36:59.518Z,6.97
2022-07-30T06:39:56.386Z,7.80
2022-07-30T06:42:17.699Z,7.47
2022-07-30T06:44:45.913Z,8.03
2022-07-30T06:47:14.018Z,6.97
2022-07-30T06:49:42.182Z,7.63
2022-07-30T06:52:10.406Z,6.90
2022-07-30T06:54:38.734Z,8.40
2022-07-30T06:57:06.927Z,7.67
2022-07-30T06:59:55.839Z,7.80
2022-07-30T07:02:25.820Z,7.37
2022-07-30T07:04:54.176Z,7.90
2022-07-30T07:07:40.383Z,7.53
2022-07-30T07:10:10.206Z,8.30
2022-07-30T07:12:38.283Z,8.10
2022-07-30T07:15:09.247Z,8.10
2022-07-30T07:17:37.283Z,8.00
2022-07-30T07:20:06.234Z,7.20
2022-07-30T07:22:34.354Z,7.90
2022-07-30T07:25:02.487Z,6.67
2022-07-30T07:27:30.680Z,6.73
2022-07-30T07:30:05.498Z,7.23
2022-07-30T07:32:36.187Z,6.23
2022-07-30T07:35:04.620Z,8.13
2022-07-30T07:37:32.803Z,6.33
2022-07-30T07:40:01.276Z,7.17
2022-07-30T07:42:29.269Z,6.90
2022-07-30T07:44:57.345Z,6.77
2022-07-30T07:47:25.832Z,5.50
2022-07-30T07:49:57.589Z,6.10
2022-07-30T07:52:25.637Z,5.93
2022-07-30T07:54:53.823Z,5.70
2022-07-30T07:57:21.940Z,5.47
2022-07-30T07:59:51.569Z,5.40
2022-07-30T08:02:19.718Z,5.60
2022-07-30T08:04:47.822Z,4.47
2022-07-30T08:07:17.297Z,5.07
2022-07-30T08:09:45.450Z,4.53
2022-07-30T08:12:13.952Z,3.73
2022-07-30T08:14:42.008Z,3.00
2022-07-30T08:17:10.293Z,2.90
2022-07-30T08:19:38.495Z,2.80
2022-07-30T08:22:07.016Z,2.50
2022-07-30T08:24:36.497Z,3.10
2022-07-30T08:27:07.709Z,2.77
2022-07-30T08:29:35.843Z,3.73
2022-07-30T08:32:04.576Z,3.40
2022-07-30T08:34:35.561Z,4.03
2022-07-30T08:37:04.048Z,3.70
2022-07-30T08:39:32.704Z,2.97
2022-07-30T08:42:06.395Z,2.30
2022-07-30T08:44:39.571Z,2.40
2022-07-30T08:47:11.936Z,1.90
2022-07-30T08:49:40.725Z,2.53
2022-07-30T08:52:10.302Z,2.30
2022-07-30T08:54:40.788Z,2.33
2022-07-30T08:57:10.531Z,2.10
2022-07-30T08:59:59.851Z,2.30
2022-07-30T09:02:29.639Z,2.20
2022-07-30T09:04:58.178Z,2.13
2022-07-30T09:07:26.303Z,2.40
2022-07-30T09:09:54.428Z,2.10
2022-07-30T09:12:43.649Z,1.83
2022-07-30T09:15:15.689Z,1.57
2022-07-30T09:17:48.707Z,1.70
2022-07-30T09:20:17.529Z,1.80
2022-07-30T09:22:48.308Z,1.42
2022-07-30T09:25:16.886Z,1.60
2022-07-30T09:27:51.421Z,2.00
2022-07-30T09:30:22.580Z,2.10
2022-07-30T09:32:52.742Z,2.50
2022-07-30T09:35:21.859Z,1.92
2022-07-30T09:38:05.877Z,2.35
2022-07-30T09:40:35.555Z,1.70
2022-07-30T09:43:07.070Z,1.90
2022-07-30T09:45:37.095Z,1.85
2022-07-30T09:48:22.127Z,1.77
2022-07-30T09:50:51.292Z,1.52
2022-07-30T09:53:22.413Z,1.88
2022-07-30T09:55:50.677Z,1.80
2022-07-30T09:58:27.230Z,1.85
2022-07-30T10:01:00.608Z,1.52
2022-07-30T10:03:33.599Z,1.77
2022-07-30T10:06:11.338Z,2.20
2022-07-30T10:08:42.619Z,1.75
2022-07-30T10:11:22.888Z,1.85
2022-07-30T10:14:05.905Z,1.80
2022-07-30T10:16:34.379Z,1.60
2022-07-30T10:19:03.455Z,1.90
2022-07-30T10:21:36.208Z,2.13
2022-07-30T10:24:05.015Z,2.10
2022-07-30T10:26:36.128Z,1.70
2022-07-30T10:29:06.359Z,1.50
2022-07-30T10:31:49.548Z,1.90
2022-07-30T10:34:23.558Z,1.83
2022-07-30T10:36:58.773Z,1.90
2022-07-30T10:39:34.529Z,2.10
2022-07-30T10:42:13.440Z,2.13
2022-07-30T10:45:03.201Z,2.03
2022-07-30T10:47:40.477Z,1.85
2022-07-30T10:50:15.869Z,2.10
2022-07-30T10:52:45.538Z,1.90
2022-07-30T10:55:16.052Z,1.67
2022-07-30T10:58:00.071Z,1.70
2022-07-30T11:00:30.662Z,1.50
2022-07-30T11:03:17.162Z,2.03
2022-07-30T11:05:48.073Z,1.90
2022-07-30T11:08:36.934Z,1.58
2022-07-30T11:11:19.835Z,1.95
2022-07-30T11:13:54.252Z,1.80
2022-07-30T11:16:25.933Z,2.17
2022-07-30T11:22:29.784Z,1.70
2022-07-30T11:24:58.535Z,2.58
2022-07-30T11:27:37.933Z,1.60
2022-07-30T11:30:08.845Z,2.05
2022-07-30T11:32:38.404Z,1.75
2022-07-30T11:35:18.144Z,1.40
2022-07-30T11:38:18.762Z,1.73
2022-07-30T11:41:10.959Z,1.42
2022-07-30T11:43:41.758Z,1.33
2022-07-30T11:46:12.310Z,1.23
2022-07-30T11:49:01.475Z,1.80
2022-07-30T11:51:31.544Z,1.60
2022-07-30T11:54:03.829Z,1.75
2022-07-30T11:56:32.410Z,1.60
2022-07-30T11:59:04.529Z,1.48
2022-07-30T12:01:33.491Z,1.60
2022-07-30T12:04:05.401Z,1.65
2022-07-30T12:06:36.414Z,1.60
2022-07-30T12:09:04.492Z,1.10
2022-07-30T12:11:33.818Z,1.80
2022-07-30T12:14:02.720Z,1.77
2022-07-30T12:16:32.550Z,1.75
2022-07-30T12:19:05.157Z,1.90
2022-07-30T12:21:33.905Z,1.33
2022-07-30T12:24:03.907Z,1.60
2022-07-30T12:26:34.202Z,1.30
2022-07-30T12:29:05.219Z,1.75
2022-07-30T12:31:34.448Z,1.20
2022-07-30T12:34:23.140Z,1.63
2022-07-30T12:36:51.737Z,1.40
2022-07-30T12:39:21.297Z,1.38
2022-07-30T12:41:51.058Z,1.70
2022-07-30T12:44:39.444Z,1.27
2022-07-30T12:47:19.933Z,2.28
2022-07-30T12:49:50.290Z,1.50
2022-07-30T12:52:28.177Z,1.48
2022-07-30T12:55:01.108Z,1.40
2022-07-30T12:57:29.572Z,1.40
2022-07-30T13:00:09.456Z,1.58
2022-07-30T13:02:37.648Z,1.52
2022-07-30T13:05:11.459Z,1.70
2022-07-30T13:07:54.867Z,1.58
2022-07-30T13:10:26.142Z,1.75
2022-07-30T13:12:58.511Z,1.60
2022-07-30T13:15:26.773Z,1.73
2022-07-30T13:17:54.881Z,1.42
2022-07-30T13:20:24.478Z,1.58
2022-07-30T13:22:52.642Z,1.58
2022-07-30T13:25:22.466Z,1.52
2022-07-30T13:27:50.534Z,1.48
2022-07-30T13:30:18.632Z,1.85
2022-07-30T13:32:46.754Z,1.67
2022-07-30T13:35:15.461Z,1.73
2022-07-30T13:37:48.052Z,1.42
2022-07-30T13:40:16.161Z,1.23
2022-07-30T13:42:44.321Z,1.90
2022-07-30T13:45:12.513Z,1.77
2022-07-30T13:47:40.788Z,1.90
2022-07-30T13:50:09.267Z,1.70
2022-07-30T13:52:37.365Z,1.40
2022-07-30T13:55:07.914Z,1.52
2022-07-30T13:57:36.142Z,1.50
2022-07-30T14:00:08.616Z,1.23
2022-07-30T14:02:37.256Z,1.63
2022-07-30T14:05:07.128Z,1.48
2022-07-30T14:07:35.262Z,1.63
2022-07-30T14:10:04.165Z,1.35
2022-07-30T14:12:33.698Z,1.30
2022-07-30T14:15:02.096Z,1.30
2022-07-30T14:17:30.281Z,1.30
2022-07-30T14:19:58.267Z,1.40
2022-07-30T14:22:26.629Z,1.25
2022-07-30T14:24:54.689Z,1.38
2022-07-30T14:27:22.889Z,1.70
2022-07-30T14:29:52.406Z,1.25
2022-07-30T14:32:20.497Z,1.40
2022-07-30T14:34:51.440Z,1.20
2022-07-30T14:37:19.526Z,1.08
2022-07-30T14:39:47.572Z,1.10
2022-07-30T14:42:15.707Z,1.27
2022-07-30T14:44:43.864Z,1.40
2022-07-30T14:47:14.996Z,1.60
2022-07-30T14:49:43.096Z,1.70
2022-07-30T14:52:11.252Z,1.55
2022-07-30T14:54:39.477Z,1.25
2022-07-30T14:57:08.689Z,1.38
2022-07-30T14:59:36.827Z,1.45
2022-07-30T15:02:05.787Z,1.45
2022-07-30T15:04:42.639Z,1.35
2022-07-30T15:07:13.078Z,1.30
2022-07-30T15:09:41.147Z,1.17
2022-07-30T15:12:10.160Z,1.38
2022-07-30T15:14:39.946Z,1.48
2022-07-30T15:17:08.341Z,1.38
2022-07-30T15:19:36.504Z,1.27
2022-07-30T15:22:06.525Z,1.70
2022-07-30T15:24:35.157Z,1.42
2022-07-30T15:27:03.278Z,1.30
2022-07-30T15:29:32.064Z,1.50
2022-07-30T15:32:01.586Z,1.30
2022-07-30T15:34:34.192Z,1.20
2022-07-30T15:37:03.189Z,1.30
2022-07-30T15:39:33.561Z,1.10
2022-07-30T15:42:02.594Z,1.35
2022-07-30T15:44:30.968Z,1.67
2022-07-30T15:46:59.392Z,1.42
2022-07-30T15:49:27.882Z,1.13
2022-07-30T15:51:57.383Z,1.50
2022-07-30T15:54:25.593Z,1.20
2022-07-30T15:57:01.470Z,2.10
2022-07-30T15:59:30.378Z,1.08
2022-07-30T16:02:01.387Z,1.17
2022-07-30T16:04:32.461Z,1.10
2022-07-30T16:07:01.282Z,0.90
2022-07-30T16:09:29.391Z,0.93
2022-07-30T16:11:59.579Z,0.75
2022-07-30T16:14:27.859Z,0.90
2022-07-30T16:16:55.951Z,0.90
2022-07-30T16:19:24.123Z,1.38
2022-07-30T16:21:52.255Z,0.90
2022-07-30T16:24:20.607Z,1.15
2022-07-30T16:26:48.939Z,1.50
2022-07-30T16:29:18.877Z,1.10
2022-07-30T16:31:47.925Z,1.25
2022-07-30T16:34:16.041Z,1.02
2022-07-30T16:36:44.881Z,1.02
2022-07-30T16:39:13.062Z,1.30
2022-07-30T16:41:41.683Z,1.23
2022-07-30T16:44:10.006Z,1.40
2022-07-30T16:46:39.687Z,1.60
2022-07-30T16:49:08.150Z,1.20
2022-07-30T16:51:36.337Z,1.20
2022-07-30T16:54:05.637Z,1.67
2022-07-30T16:56:33.685Z,1.25
2022-07-30T16:59:01.874Z,1.42
2022-07-30T17:01:31.103Z,1.50
2022-07-30T17:04:00.589Z,1.48
2022-07-30T17:06:28.690Z,1.60
2022-07-30T17:08:56.732Z,1.50
2022-07-30T17:11:47.152Z,1.38
2022-07-30T17:14:13.293Z,1.88
2022-07-30T17:16:41.543Z,1.85
2022-07-30T17:19:11.022Z,2.00
2022-07-30T17:21:39.155Z,1.77
2022-07-30T17:24:11.461Z,1.80
2022-07-30T17:26:41.699Z,1.92
2022-07-30T17:29:13.869Z,1.67
2022-07-30T17:31:44.176Z,1.45
2022-07-30T17:34:15.756Z,1.90
2022-07-30T17:36:51.614Z,2.20
2022-07-30T17:40:19.292Z,1.75
2022-07-30T17:42:10.344Z,2.40
2022-07-30T17:44:39.290Z,2.10
2022-07-30T17:47:12.349Z,2.17
2022-07-30T17:49:43.535Z,2.03
2022-07-30T17:52:11.634Z,1.83
2022-07-30T17:54:39.844Z,1.60
2022-07-30T17:57:08.134Z,1.58
2022-07-30T17:59:36.229Z,1.70
2022-07-30T18:02:05.376Z,1.70
2022-07-30T18:04:34.929Z,1.58
2022-07-30T18:07:05.922Z,1.80
2022-07-30T18:09:37.803Z,1.70
2022-07-30T18:12:09.340Z,1.63
2022-07-30T18:14:37.613Z,1.40
2022-07-30T18:17:08.994Z,1.20
2022-07-30T18:19:39.366Z,1.27
2022-07-30T18:22:10.428Z,1.40
2022-07-30T18:24:43.908Z,1.13
2022-07-30T18:27:12.635Z,1.40
2022-07-30T18:29:40.796Z,1.58
2022-07-30T18:32:09.136Z,1.70
2022-07-30T18:34:37.614Z,1.80
2022-07-30T18:37:05.624Z,1.50
2022-07-30T18:39:35.091Z,1.70
2022-07-30T18:42:03.959Z,1.50
2022-07-30T18:44:32.438Z,1.90
2022-07-30T18:47:00.576Z,2.20
2022-07-30T18:49:37.460Z,2.33
2022-07-30T18:52:08.140Z,1.88
2022-07-30T18:54:39.169Z,1.85
2022-07-30T18:57:11.290Z,2.33
2022-07-30T18:59:42.877Z,1.92
2022-07-30T19:02:11.078Z,2.28
2022-07-30T19:04:39.195Z,1.90
2022-07-30T19:07:07.482Z,2.10
2022-07-30T19:09:37.125Z,2.00
2022-07-30T19:12:05.948Z,2.03
2022-07-30T19:14:34.264Z,2.10
2022-07-30T19:17:02.462Z,2.20
2022-07-30T19:19:33.109Z,2.23
2022-07-30T19:22:01.562Z,2.30
2022-07-30T19:24:29.971Z,1.90
2022-07-30T19:26:59.382Z,2.07
2022-07-30T19:29:27.426Z,2.07
2022-07-30T19:31:55.534Z,1.80
2022-07-30T19:34:23.624Z,2.00
2022-07-30T19:36:54.183Z,1.80
2022-07-30T19:39:31.165Z,2.20
2022-07-30T19:42:05.717Z,1.75
2022-07-30T19:44:35.869Z,1.73
2022-07-30T19:47:09.600Z,1.70
2022-07-30T19:49:40.556Z,1.60
2022-07-30T19:52:23.417Z,1.87
2022-07-30T19:54:51.996Z,1.53
2022-07-30T19:57:21.471Z,1.60
2022-07-30T20:00:00.244Z,1.40
2022-07-30T20:02:35.581Z,1.67
2022-07-30T20:05:06.064Z,1.90
2022-07-30T20:07:39.328Z,1.47
2022-07-30T20:10:10.639Z,1.57
2022-07-30T20:12:49.105Z,1.60
2022-07-30T20:15:17.849Z,1.63
2022-07-30T20:17:46.368Z,1.57
2022-07-30T20:20:15.311Z,1.50
2022-07-30T20:22:43.855Z,1.73
2022-07-30T20:25:12.363Z,1.47
2022-07-30T20:27:42.887Z,1.97
2022-07-30T20:30:12.783Z,2.00
2022-07-30T20:32:46.428Z,2.20
2022-07-30T20:35:15.183Z,2.23
2022-07-30T20:37:54.875Z,2.13
2022-07-30T20:40:24.300Z,2.30
2022-07-30T20:42:56.396Z,2.10
2022-07-30T20:45:25.804Z,2.40
2022-07-30T20:48:16.925Z,2.10
2022-07-30T20:50:49.226Z,2.10
2022-07-30T20:53:17.718Z,1.87
2022-07-30T20:55:46.090Z,2.03
2022-07-30T20:58:17.426Z,1.80
2022-07-30T21:03:33.950Z,1.60
2022-07-30T21:06:02.116Z,1.60
2022-07-30T21:08:30.768Z,1.53
2022-07-30T21:11:00.231Z,1.33
2022-07-30T21:13:30.364Z,1.43
2022-07-30T21:16:02.511Z,1.30
2022-07-30T21:18:32.752Z,1.43
2022-07-30T21:21:05.004Z,1.30
2022-07-30T21:23:34.120Z,1.30
2022-07-30T21:26:07.083Z,1.00
2022-07-30T21:28:41.387Z,1.10
2022-07-30T21:31:10.563Z,1.30
2022-07-30T21:33:40.147Z,1.27
2022-07-30T21:36:10.828Z,1.47
2022-07-30T21:38:41.822Z,1.40
2022-07-30T21:41:14.484Z,1.33
2022-07-30T21:43:45.703Z,1.20
2022-07-30T21:46:14.625Z,1.40
2022-07-30T21:48:44.211Z,1.33
2022-07-30T21:51:12.478Z,1.77
2022-07-30T21:53:45.235Z,1.70
2022-07-30T21:56:16.266Z,1.47
2022-07-30T21:58:46.137Z,1.80
2022-07-30T22:01:21.834Z,1.73
2022-07-30T22:04:03.096Z,1.80
2022-07-30T22:06:42.862Z,1.70
2022-07-30T22:09:19.459Z,1.97
2022-07-30T22:12:09.265Z,1.60
2022-07-30T22:14:40.387Z,1.40
2022-07-30T22:17:22.828Z,1.30
2022-07-30T22:19:54.396Z,1.57
2022-07-30T22:22:27.303Z,1.70
2022-07-30T22:24:57.284Z,1.80
2022-07-30T22:27:28.036Z,1.83
2022-07-30T22:30:11.202Z,2.20
2022-07-30T22:32:42.897Z,2.20
2022-07-30T22:35:11.813Z,1.80
2022-07-30T22:37:44.788Z,2.10
2022-07-30T22:40:15.199Z,2.17
2022-07-30T22:42:49.764Z,2.50
2022-07-30T22:45:45.780Z,2.00
2022-07-30T22:48:10.717Z,2.00
2022-07-30T22:50:40.214Z,2.23
2022-07-30T22:53:23.412Z,2.67
2022-07-30T22:55:58.857Z,2.10
2022-07-30T22:58:28.751Z,2.10
2022-07-30T23:00:59.167Z,2.37
2022-07-30T23:03:27.258Z,2.30
2022-07-30T23:05:56.757Z,2.70
2022-07-30T23:08:29.706Z,2.50
2022-07-30T23:10:59.594Z,2.57
2022-07-30T23:12:31.693Z,1.60
2022-07-30T23:13:28.308Z,2.57
2022-07-30T23:15:56.356Z,2.40
2022-07-30T23:18:26.327Z,2.37
2022-07-30T23:20:58.534Z,2.40
2022-07-30T23:23:30.986Z,2.37
2022-07-30T23:26:03.005Z,2.93
2022-07-30T23:28:31.121Z,2.60
2022-07-30T23:30:59.189Z,2.43
2022-07-30T23:33:28.884Z,2.77
2022-07-30T23:35:57.285Z,2.67
2022-07-30T23:38:25.346Z,2.70
2022-07-30T23:40:53.503Z,3.30
2022-07-30T23:43:21.548Z,3.00
2022-07-30T23:45:49.632Z,2.87
2022-07-30T23:48:20.099Z,3.80
2022-07-30T23:50:49.692Z,4.43
2022-07-30T23:53:17.766Z,4.40
2022-07-30T23:55:48.570Z,3.97
2022-07-30T23:58:16.943Z,3.83
